createdAt,value
2023-03-11T00:00:22.472Z,3.00
2023-03-11T00:03:09.942Z,3.00
2023-03-11T00:05:40.809Z,2.80
2023-03-11T00:08:10.425Z,2.80
2023-03-11T00:10:41.130Z,2.80
2023-03-11T00:13:10.635Z,2.80
2023-03-11T00:15:39.001Z,2.80
2023-03-11T00:18:07.247Z,2.70
2023-03-11T00:20:37.451Z,2.70
2023-03-11T00:23:06.941Z,2.80
2023-03-11T00:25:36.499Z,2.80
2023-03-11T00:28:05.021Z,2.80
2023-03-11T00:30:32.327Z,2.70
2023-03-11T00:32:59.701Z,2.80
2023-03-11T00:35:29.548Z,2.90
2023-03-11T00:37:59.445Z,2.70
2023-03-11T00:40:29.214Z,2.70
2023-03-11T00:42:56.889Z,2.70
2023-03-11T00:45:24.690Z,2.60
2023-03-11T00:47:52.803Z,2.60
2023-03-11T00:50:29.584Z,2.60
2023-03-11T00:52:57.431Z,2.50
2023-03-11T00:55:28.294Z,2.40
2023-03-11T00:58:00.637Z,2.50
2023-03-11T01:00:29.809Z,2.40
2023-03-11T01:02:58.081Z,2.50
2023-03-11T01:05:28.944Z,2.30
2023-03-11T01:07:56.356Z,2.50
2023-03-11T01:10:23.856Z,2.40
2023-03-11T01:12:51.458Z,2.40
2023-03-11T01:15:25.551Z,2.30
2023-03-11T01:17:52.883Z,2.40
2023-03-11T01:20:22.550Z,2.40
2023-03-11T01:22:49.867Z,2.30
2023-03-11T01:25:19.460Z,2.20
2023-03-11T01:27:47.011Z,2.30
2023-03-11T01:30:23.131Z,2.30
2023-03-11T01:32:52.522Z,2.20
2023-03-11T01:35:21.899Z,2.20
2023-03-11T01:37:49.185Z,2.30
2023-03-11T01:40:26.512Z,2.20
2023-03-11T01:42:53.681Z,2.20
2023-03-11T01:45:39.219Z,2.20
2023-03-11T01:48:07.576Z,2.20
2023-03-11T01:50:38.524Z,2.30
2023-03-11T01:53:06.236Z,2.20
2023-03-11T01:55:34.333Z,2.20
2023-03-11T01:58:06.154Z,2.30
2023-03-11T02:00:34.846Z,2.20
2023-03-11T02:03:09.731Z,2.30
2023-03-11T02:05:37.627Z,2.20
2023-03-11T02:08:05.154Z,2.10
2023-03-11T02:10:32.421Z,2.30
2023-03-11T02:13:00.426Z,2.20
2023-03-11T02:15:27.688Z,2.50
2023-03-11T02:17:56.540Z,2.30
2023-03-11T02:20:35.945Z,2.40
2023-03-11T02:23:03.240Z,2.40
2023-03-11T02:25:40.884Z,2.50
2023-03-11T02:28:11.608Z,2.40
2023-03-11T02:30:42.379Z,2.40
2023-03-11T02:33:11.136Z,2.50
2023-03-11T02:35:38.574Z,2.50
2023-03-11T02:38:05.779Z,2.40
2023-03-11T02:40:46.423Z,2.40
2023-03-11T02:43:16.017Z,2.40
2023-03-11T02:45:45.398Z,2.50
2023-03-11T02:48:14.142Z,2.50
2023-03-11T02:50:41.739Z,2.50
2023-03-11T02:53:08.999Z,2.50
2023-03-11T02:55:36.603Z,2.40
2023-03-11T02:58:03.837Z,2.40
2023-03-11T03:00:31.349Z,2.50
2023-03-11T03:02:58.557Z,2.50
2023-03-11T03:05:25.754Z,2.50
2023-03-11T03:07:52.984Z,2.30
2023-03-11T03:10:22.439Z,2.50
2023-03-11T03:12:49.682Z,2.50
2023-03-11T03:15:17.250Z,2.50
2023-03-11T03:17:44.976Z,2.50
2023-03-11T03:20:14.198Z,2.30
2023-03-11T03:22:42.280Z,2.30
2023-03-11T03:25:11.199Z,2.20
2023-03-11T03:27:38.982Z,2.20
2023-03-11T03:30:07.859Z,2.30
2023-03-11T03:32:35.383Z,2.30
2023-03-11T03:35:03.771Z,2.30
2023-03-11T03:37:33.775Z,2.30
2023-03-11T03:40:01.108Z,2.20
2023-03-11T03:42:28.463Z,2.10
2023-03-11T03:44:55.705Z,2.10
2023-03-11T03:47:22.962Z,2.30
2023-03-11T03:49:50.130Z,2.20
2023-03-11T03:52:17.476Z,2.20
2023-03-11T03:54:44.888Z,2.10
2023-03-11T03:57:12.061Z,2.20
2023-03-11T03:59:39.313Z,2.30
2023-03-11T04:02:06.634Z,2.30
2023-03-11T04:04:33.827Z,2.40
2023-03-11T04:07:01.290Z,2.20
2023-03-11T04:09:28.521Z,2.20
2023-03-11T04:11:55.649Z,2.20
2023-03-11T04:14:23.260Z,2.30
2023-03-11T04:16:50.421Z,2.20
2023-03-11T04:19:17.658Z,2.10
2023-03-11T04:21:44.918Z,2.10
2023-03-11T04:24:12.046Z,2.20
2023-03-11T04:26:39.319Z,2.00
2023-03-11T04:29:06.653Z,2.10
2023-03-11T04:31:33.789Z,2.10
2023-03-11T04:34:01.091Z,2.30
2023-03-11T04:36:28.355Z,2.10
2023-03-11T04:38:57.134Z,2.00
2023-03-11T04:41:24.445Z,1.90
2023-03-11T04:43:51.750Z,2.00
2023-03-11T04:46:19.115Z,2.10
2023-03-11T04:48:46.306Z,2.00
2023-03-11T04:51:13.786Z,2.00
2023-03-11T04:53:41.217Z,2.00
2023-03-11T04:56:08.416Z,1.90
2023-03-11T04:58:35.592Z,1.90
2023-03-11T05:01:02.824Z,2.00
2023-03-11T05:03:30.243Z,1.90
2023-03-11T05:05:57.400Z,2.00
2023-03-11T05:08:24.677Z,2.00
2023-03-11T05:10:53.226Z,2.10
2023-03-11T05:13:20.770Z,2.10
2023-03-11T05:15:48.509Z,2.10
2023-03-11T05:18:16.488Z,2.10
2023-03-11T05:20:43.690Z,2.00
2023-03-11T05:23:10.876Z,2.10
2023-03-11T05:25:38.056Z,2.20
2023-03-11T05:28:05.366Z,1.90
2023-03-11T05:30:32.694Z,2.00
2023-03-11T05:33:00.016Z,1.80
2023-03-11T05:35:27.499Z,1.90
2023-03-11T05:37:55.745Z,1.90
2023-03-11T05:40:22.940Z,2.00
2023-03-11T05:42:50.425Z,2.10
2023-03-11T05:45:17.873Z,2.20
2023-03-11T05:47:45.064Z,2.20
2023-03-11T05:50:12.795Z,2.30
2023-03-11T05:52:40.218Z,2.20
2023-03-11T05:55:09.663Z,2.20
2023-03-11T05:57:36.930Z,2.20
2023-03-11T06:00:08.192Z,2.30
2023-03-11T06:02:35.405Z,2.20
2023-03-11T06:05:02.886Z,2.20
2023-03-11T06:07:30.145Z,2.20
2023-03-11T06:09:57.309Z,2.30
2023-03-11T06:12:24.434Z,2.30
2023-03-11T06:14:53.977Z,2.30
2023-03-11T06:17:21.290Z,2.20
2023-03-11T06:19:48.439Z,2.30
2023-03-11T06:22:15.963Z,2.30
2023-03-11T06:24:43.597Z,2.40
2023-03-11T06:27:11.409Z,2.30
2023-03-11T06:29:38.610Z,2.50
2023-03-11T06:32:06.922Z,2.60
2023-03-11T06:34:34.150Z,2.50
2023-03-11T06:37:01.399Z,2.70
2023-03-11T06:39:28.580Z,2.80
2023-03-11T06:41:55.839Z,2.70
2023-03-11T06:44:23.010Z,2.80
2023-03-11T06:46:50.218Z,2.80
2023-03-11T06:49:17.410Z,2.80
2023-03-11T06:51:44.688Z,2.90
2023-03-11T06:54:11.979Z,3.00
2023-03-11T06:56:39.116Z,3.00
2023-03-11T06:59:06.324Z,3.00
2023-03-11T07:01:33.789Z,3.10
2023-03-11T07:04:01.111Z,3.30
2023-03-11T07:06:28.972Z,3.30
2023-03-11T07:08:56.176Z,3.40
2023-03-11T07:11:26.335Z,3.50
2023-03-11T07:13:54.843Z,3.60
2023-03-11T07:16:27.298Z,3.70
2023-03-11T07:19:01.260Z,3.60
2023-03-11T07:21:30.452Z,3.60
2023-03-11T07:24:00.379Z,3.60
2023-03-11T07:26:28.663Z,3.50
2023-03-11T07:28:56.945Z,3.40
2023-03-11T07:31:26.701Z,3.20
2023-03-11T07:33:54.477Z,3.30
2023-03-11T07:36:24.412Z,3.20
2023-03-11T07:39:01.143Z,3.20
2023-03-11T07:41:31.928Z,3.20
2023-03-11T07:44:00.663Z,3.40
2023-03-11T07:46:30.254Z,3.20
2023-03-11T07:48:57.583Z,3.20
2023-03-11T07:51:27.976Z,3.40
2023-03-11T07:53:56.949Z,3.50
2023-03-11T07:56:25.871Z,3.50
2023-03-11T07:58:53.432Z,3.40
2023-03-11T08:01:25.420Z,3.60
2023-03-11T08:03:58.929Z,3.80
2023-03-11T08:06:29.934Z,3.80
2023-03-11T08:08:59.493Z,3.80
2023-03-11T08:11:26.882Z,4.00
2023-03-11T08:13:54.281Z,3.90
2023-03-11T08:16:22.713Z,3.80
2023-03-11T08:18:51.056Z,3.80
2023-03-11T08:21:22.507Z,3.50
2023-03-11T08:23:51.306Z,3.60
2023-03-11T08:26:21.733Z,3.50
2023-03-11T08:28:49.890Z,3.60
2023-03-11T08:31:29.063Z,3.40
2023-03-11T08:34:06.565Z,3.20
2023-03-11T08:36:34.483Z,2.80
2023-03-11T08:39:02.087Z,3.10
2023-03-11T08:41:29.707Z,3.80
2023-03-11T08:43:57.576Z,4.30
2023-03-11T08:46:32.385Z,4.60
2023-03-11T08:49:01.342Z,4.80
2023-03-11T08:51:30.321Z,4.70
2023-03-11T08:53:58.100Z,4.80
2023-03-11T08:56:25.814Z,4.50
2023-03-11T08:58:53.054Z,4.60
2023-03-11T09:01:23.942Z,4.90
2023-03-11T09:03:51.362Z,5.20
2023-03-11T09:06:19.418Z,5.30
2023-03-11T09:08:48.495Z,5.40
2023-03-11T09:11:17.122Z,5.50
2023-03-11T09:13:44.942Z,5.50
2023-03-11T09:16:13.737Z,5.80
2023-03-11T09:18:41.262Z,5.90
2023-03-11T09:21:08.920Z,6.00
2023-03-11T09:23:36.071Z,6.30
2023-03-11T09:26:03.442Z,6.40
2023-03-11T09:28:30.637Z,6.00
2023-03-11T09:30:58.112Z,5.40
2023-03-11T09:33:25.404Z,5.20
2023-03-11T09:35:52.609Z,5.00
2023-03-11T09:38:19.817Z,5.30
2023-03-11T09:41:03.137Z,5.50
2023-03-11T09:43:39.724Z,5.70
2023-03-11T09:46:35.009Z,6.00
2023-03-11T09:49:08.159Z,5.70
2023-03-11T09:51:43.099Z,5.60
2023-03-11T09:54:11.916Z,5.80
2023-03-11T09:56:44.414Z,7.00
2023-03-11T09:59:20.747Z,9.20
2023-03-11T10:01:49.725Z,14.00
2023-03-11T10:04:55.094Z,16.30
2023-03-11T10:07:28.486Z,17.20
2023-03-11T10:09:58.902Z,16.90
2023-03-11T10:12:35.124Z,15.20
2023-03-11T10:15:48.480Z,17.20
2023-03-11T10:18:24.622Z,18.90
2023-03-11T10:21:11.868Z,14.40
2023-03-11T10:24:06.334Z,17.40
2023-03-11T10:26:42.337Z,16.50
2023-03-11T10:29:23.245Z,14.70
2023-03-11T10:32:06.517Z,16.30
2023-03-11T10:34:40.063Z,16.80
2023-03-11T10:37:48.329Z,15.60
2023-03-11T10:40:23.997Z,14.10
2023-03-11T10:42:53.996Z,12.20
2023-03-11T10:45:23.599Z,10.80
2023-03-11T10:47:51.000Z,10.40
2023-03-11T10:50:20.212Z,10.60
2023-03-11T10:53:07.523Z,10.60
2023-03-11T10:55:35.663Z,11.20
2023-03-11T10:58:11.237Z,10.20
2023-03-11T11:00:38.580Z,9.30
2023-03-11T11:03:21.483Z,8.90
2023-03-11T11:06:02.290Z,8.50
2023-03-11T11:08:30.244Z,8.20
2023-03-11T11:11:00.479Z,8.50
2023-03-11T11:13:34.682Z,8.60
2023-03-11T11:16:21.078Z,9.10
2023-03-11T11:18:58.149Z,8.50
2023-03-11T11:21:37.493Z,7.40
2023-03-11T11:24:18.522Z,7.30
2023-03-11T11:27:04.143Z,7.40
2023-03-11T11:29:31.753Z,7.60
2023-03-11T11:32:14.409Z,9.00
2023-03-11T11:34:41.881Z,9.60
2023-03-11T11:37:14.608Z,10.40
2023-03-11T11:39:53.168Z,10.70
2023-03-11T11:42:21.212Z,11.70
2023-03-11T11:44:53.365Z,10.40
2023-03-11T11:47:26.501Z,9.50
2023-03-11T11:49:58.041Z,9.50
2023-03-11T11:52:30.843Z,9.10
2023-03-11T11:55:05.171Z,8.10
2023-03-11T11:57:32.903Z,7.40
2023-03-11T12:00:02.270Z,6.80
2023-03-11T12:02:44.927Z,6.20
2023-03-11T12:05:26.448Z,6.40
2023-03-11T12:08:19.516Z,6.60
2023-03-11T12:11:04.876Z,7.00
2023-03-11T12:14:05.760Z,6.90
2023-03-11T12:16:48.335Z,7.20
2023-03-11T12:19:32.967Z,7.50
2023-03-11T12:22:18.870Z,7.70
2023-03-11T12:24:58.410Z,7.20
2023-03-11T12:27:31.159Z,7.30
2023-03-11T12:30:02.382Z,7.10
2023-03-11T12:32:39.063Z,6.50
2023-03-11T12:35:30.875Z,6.50
2023-03-11T12:38:13.274Z,6.80
2023-03-11T12:40:51.051Z,7.00
2023-03-11T12:43:35.967Z,6.90
2023-03-11T12:46:05.841Z,6.70
2023-03-11T12:48:43.553Z,6.70
2023-03-11T12:51:37.648Z,6.60
2023-03-11T12:54:34.225Z,6.60
2023-03-11T12:57:17.351Z,6.50
2023-03-11T12:59:48.097Z,6.30
2023-03-11T13:02:47.864Z,6.30
2023-03-11T13:05:28.599Z,6.20
2023-03-11T13:08:17.765Z,6.50
2023-03-11T13:10:47.570Z,7.00
2023-03-11T13:13:40.439Z,7.10
2023-03-11T13:16:14.194Z,6.90
2023-03-11T13:18:46.808Z,7.10
2023-03-11T13:21:32.066Z,6.70
2023-03-11T13:24:26.161Z,6.60
2023-03-11T13:27:05.102Z,7.00
2023-03-11T13:29:54.136Z,6.80
2023-03-11T13:32:21.448Z,7.00
2023-03-11T13:34:48.632Z,7.60
2023-03-11T13:37:51.006Z,7.40
2023-03-11T13:40:24.038Z,7.50
2023-03-11T13:42:54.478Z,7.40
2023-03-11T13:45:35.378Z,7.40
2023-03-11T13:48:08.031Z,7.20
2023-03-11T13:50:39.074Z,7.20
2023-03-11T13:53:39.915Z,6.80
2023-03-11T13:56:27.796Z,6.90
2023-03-11T13:58:55.059Z,6.90
2023-03-11T14:01:22.280Z,6.60
2023-03-11T14:03:49.513Z,6.30
2023-03-11T14:06:19.884Z,6.40
2023-03-11T14:08:57.954Z,6.50
2023-03-11T14:11:27.633Z,6.10
2023-03-11T14:13:55.562Z,5.80
2023-03-11T14:16:47.510Z,5.80
2023-03-11T14:19:19.384Z,6.10
2023-03-11T14:21:49.357Z,6.20
2023-03-11T14:24:28.515Z,6.30
2023-03-11T14:26:58.319Z,6.40
2023-03-11T14:29:37.723Z,6.20
2023-03-11T14:32:24.097Z,6.00
2023-03-11T14:34:51.339Z,5.60
2023-03-11T14:37:38.572Z,5.60
2023-03-11T14:40:28.840Z,5.80
2023-03-11T14:43:00.454Z,5.90
2023-03-11T14:45:33.804Z,5.90
2023-03-11T14:48:15.250Z,5.70
2023-03-11T14:50:44.951Z,5.50
2023-03-11T14:53:20.095Z,5.30
2023-03-11T14:55:59.541Z,5.20
2023-03-11T14:58:55.664Z,5.20
2023-03-11T15:01:31.289Z,5.20
2023-03-11T15:04:07.262Z,5.30
2023-03-11T15:06:35.753Z,5.10
2023-03-11T15:09:08.151Z,5.30
2023-03-11T15:11:55.624Z,5.40
2023-03-11T15:14:26.994Z,5.50
2023-03-11T15:16:56.062Z,5.40
2023-03-11T15:19:29.384Z,5.20
2023-03-11T15:21:59.931Z,5.20
2023-03-11T15:24:32.849Z,5.20
2023-03-11T15:27:03.306Z,5.20
2023-03-11T15:29:31.930Z,5.20
2023-03-11T15:31:59.758Z,5.10
2023-03-11T15:34:35.821Z,5.00
2023-03-11T15:37:26.698Z,5.10
2023-03-11T15:39:58.307Z,4.80
2023-03-11T15:42:26.679Z,4.60
2023-03-11T15:45:04.566Z,4.60
2023-03-11T15:47:32.042Z,4.50
2023-03-11T15:50:03.526Z,4.40
2023-03-11T15:52:30.698Z,4.40
2023-03-11T15:54:57.853Z,4.40
2023-03-11T15:57:30.057Z,4.40
2023-03-11T16:00:00.085Z,4.30
2023-03-11T16:02:30.492Z,4.30
2023-03-11T16:04:58.945Z,4.30
2023-03-11T16:07:38.690Z,4.30
2023-03-11T16:10:08.126Z,4.20
2023-03-11T16:12:35.812Z,4.20
2023-03-11T16:15:04.285Z,4.10
2023-03-11T16:17:48.358Z,4.00
2023-03-11T16:20:16.567Z,4.10
2023-03-11T16:22:43.811Z,3.90
2023-03-11T16:25:19.978Z,4.10
2023-03-11T16:27:47.659Z,3.90
2023-03-11T16:30:16.338Z,3.90
2023-03-11T16:32:43.834Z,3.80
2023-03-11T16:35:12.088Z,3.70
2023-03-11T16:37:42.101Z,3.60
2023-03-11T16:40:14.839Z,3.60
2023-03-11T16:42:43.820Z,3.60
2023-03-11T16:45:12.764Z,3.40
2023-03-11T16:47:40.049Z,3.50
2023-03-11T16:50:08.336Z,3.40
2023-03-11T16:52:35.643Z,3.40
2023-03-11T16:55:03.155Z,3.60
2023-03-11T16:57:30.374Z,3.50
2023-03-11T16:59:58.543Z,3.40
2023-03-11T17:02:26.236Z,3.40
2023-03-11T17:04:53.637Z,3.30
2023-03-11T17:07:24.229Z,3.10
2023-03-11T17:09:51.834Z,3.20
2023-03-11T17:12:19.300Z,3.20
2023-03-11T17:14:46.916Z,3.20
2023-03-11T17:17:14.379Z,3.30
2023-03-11T17:19:41.544Z,3.30
2023-03-11T17:22:08.794Z,3.30
2023-03-11T17:24:36.622Z,3.10
2023-03-11T17:27:04.782Z,3.10
2023-03-11T17:29:31.974Z,3.10
2023-03-11T17:31:59.111Z,3.10
2023-03-11T17:34:26.382Z,2.90
2023-03-11T17:36:53.499Z,3.00
2023-03-11T17:39:20.697Z,3.00
2023-03-11T17:41:48.312Z,3.00
2023-03-11T17:44:15.952Z,2.90
2023-03-11T17:46:43.260Z,2.90
2023-03-11T17:49:15.140Z,2.90
2023-03-11T17:51:42.355Z,2.80
2023-03-11T17:54:09.525Z,2.80
2023-03-11T17:56:36.683Z,2.70
2023-03-11T17:59:03.911Z,2.70
2023-03-11T18:01:31.680Z,2.70
2023-03-11T18:03:59.079Z,2.70
2023-03-11T18:06:26.609Z,2.60
2023-03-11T18:08:53.824Z,2.70
2023-03-11T18:11:23.736Z,2.70
2023-03-11T18:13:51.623Z,2.70
2023-03-11T18:16:25.076Z,2.70
2023-03-11T18:18:52.640Z,2.60
2023-03-11T18:21:22.875Z,2.50
2023-03-11T18:23:54.113Z,2.60
2023-03-11T18:26:22.128Z,2.60
2023-03-11T18:28:53.167Z,2.60
2023-03-11T18:31:23.243Z,2.50
2023-03-11T18:33:59.729Z,2.40
2023-03-11T18:36:30.999Z,2.50
2023-03-11T18:39:00.513Z,2.50
2023-03-11T18:41:31.196Z,2.50
2023-03-11T18:43:58.836Z,2.50
2023-03-11T18:46:28.980Z,2.60
2023-03-11T18:49:00.455Z,2.60
2023-03-11T18:51:29.822Z,2.50
2023-03-11T18:53:57.131Z,2.50
2023-03-11T18:56:24.232Z,2.40
2023-03-11T18:58:51.391Z,2.40
2023-03-11T19:01:20.909Z,2.40
2023-03-11T19:03:56.740Z,2.40
2023-03-11T19:06:25.664Z,2.40
2023-03-11T19:08:53.809Z,2.40
2023-03-11T19:11:23.014Z,2.40
2023-03-11T19:13:50.464Z,2.40
2023-03-11T19:16:22.152Z,2.40
2023-03-11T19:18:50.359Z,2.40
2023-03-11T19:21:17.721Z,2.50
2023-03-11T19:23:45.624Z,2.50
2023-03-11T19:26:13.297Z,2.50
2023-03-11T19:28:41.097Z,2.60
2023-03-11T19:31:08.509Z,2.60
2023-03-11T19:33:35.731Z,2.50
2023-03-11T19:36:05.195Z,2.50
2023-03-11T19:38:33.391Z,2.60
2023-03-11T19:41:15.350Z,2.70
2023-03-11T19:43:42.830Z,2.60
2023-03-11T19:46:13.531Z,2.60
2023-03-11T19:48:41.227Z,2.70
2023-03-11T19:51:08.994Z,2.70
2023-03-11T19:53:37.040Z,2.70
2023-03-11T19:56:04.979Z,2.70
2023-03-11T19:58:32.317Z,2.70
2023-03-11T20:01:00.248Z,2.70
2023-03-11T20:03:28.014Z,2.70
2023-03-11T20:05:58.102Z,2.70
2023-03-11T20:08:26.013Z,2.80
2023-03-11T20:10:53.943Z,2.80
2023-03-11T20:13:22.173Z,2.80
2023-03-11T20:15:50.002Z,2.70
2023-03-11T20:18:18.291Z,2.60
2023-03-11T20:20:46.935Z,2.60
2023-03-11T20:23:14.970Z,2.50
2023-03-11T20:25:42.331Z,2.50
2023-03-11T20:28:10.280Z,2.40
2023-03-11T20:30:39.169Z,2.30
2023-03-11T20:33:08.106Z,2.30
2023-03-11T20:35:35.988Z,2.30
2023-03-11T20:38:03.282Z,2.30
2023-03-11T20:40:30.944Z,2.20
2023-03-11T20:42:58.062Z,2.20
2023-03-11T20:45:25.365Z,2.30
2023-03-11T20:47:54.112Z,2.20
2023-03-11T20:50:22.326Z,2.20
2023-03-11T20:52:50.910Z,2.20
2023-03-11T20:55:18.447Z,2.10
2023-03-11T20:57:45.914Z,2.10
2023-03-11T21:00:14.628Z,2.00
2023-03-11T21:02:43.044Z,2.00
2023-03-11T21:05:12.320Z,2.10
2023-03-11T21:07:40.321Z,2.00
2023-03-11T21:10:11.362Z,2.10
2023-03-11T21:12:38.641Z,2.00
2023-03-11T21:15:07.464Z,2.00
2023-03-11T21:17:34.974Z,1.90
2023-03-11T21:20:02.595Z,2.00
2023-03-11T21:22:29.798Z,2.00
2023-03-11T21:24:57.145Z,2.00
2023-03-11T21:27:27.815Z,2.00
2023-03-11T21:29:56.037Z,2.00
2023-03-11T21:32:24.759Z,2.00
2023-03-11T21:34:58.631Z,2.10
2023-03-11T21:37:27.450Z,2.00
2023-03-11T21:39:55.100Z,2.00
2023-03-11T21:42:22.479Z,2.00
2023-03-11T21:44:51.710Z,2.10
2023-03-11T21:47:20.181Z,2.10
2023-03-11T21:49:47.443Z,2.10
2023-03-11T21:52:14.821Z,2.10
2023-03-11T21:54:42.173Z,2.10
2023-03-11T21:57:09.584Z,2.10
2023-03-11T21:59:36.864Z,2.10
2023-03-11T22:02:04.326Z,2.00
2023-03-11T22:04:32.201Z,2.00
2023-03-11T22:06:59.503Z,2.00
2023-03-11T22:09:26.781Z,2.00
2023-03-11T22:11:56.308Z,1.90
2023-03-11T22:14:24.674Z,2.00
2023-03-11T22:16:52.147Z,2.10
2023-03-11T22:19:19.818Z,2.10
2023-03-11T22:21:48.565Z,2.10
2023-03-11T22:24:16.545Z,2.10
2023-03-11T22:26:43.655Z,2.10
2023-03-11T22:29:13.458Z,2.10
2023-03-11T22:31:40.895Z,2.10
2023-03-11T22:34:08.114Z,2.10
2023-03-11T22:36:35.310Z,2.10
2023-03-11T22:39:04.457Z,2.20
2023-03-11T22:41:32.811Z,2.20
2023-03-11T22:44:00.242Z,2.30
2023-03-11T22:46:28.019Z,2.20
2023-03-11T22:48:55.290Z,2.30
2023-03-11T22:51:22.492Z,2.30
2023-03-11T22:53:49.685Z,2.30
2023-03-11T22:56:18.629Z,2.30
2023-03-11T22:58:46.188Z,2.30
2023-03-11T23:01:13.776Z,2.30
2023-03-11T23:03:43.198Z,2.30
2023-03-11T23:06:13.474Z,2.30
2023-03-11T23:08:40.665Z,2.30
2023-03-11T23:11:10.180Z,2.30
2023-03-11T23:13:38.593Z,2.40
2023-03-11T23:16:12.562Z,2.40
2023-03-11T23:18:41.162Z,2.50
2023-03-11T23:21:20.655Z,2.50
2023-03-11T23:23:47.903Z,2.50
2023-03-11T23:26:16.460Z,2.30
2023-03-11T23:28:44.805Z,2.30
2023-03-11T23:31:15.783Z,2.30
2023-03-11T23:33:43.943Z,2.30
2023-03-11T23:36:14.789Z,2.20
2023-03-11T23:38:42.426Z,2.20
2023-03-11T23:41:13.230Z,2.20
2023-03-11T23:43:41.267Z,2.20
2023-03-11T23:46:10.539Z,2.40
2023-03-11T23:48:38.475Z,2.50
2023-03-11T23:51:05.723Z,2.60
2023-03-11T23:53:32.944Z,2.60
2023-03-11T23:56:00.387Z,2.70
2023-03-11T23:58:28.058Z,2.70
